createdAt,value
2022-09-23T00:01:48.059Z,7.30
2022-09-23T00:04:19.668Z,7.29
2022-09-23T00:06:52.125Z,7.26
2022-09-23T00:09:24.503Z,7.23
2022-09-23T00:11:57.352Z,7.21
2022-09-23T00:14:29.366Z,7.20
2022-09-23T00:17:01.016Z,7.19
2022-09-23T00:19:32.661Z,7.18
2022-09-23T00:22:06.808Z,7.16
2022-09-23T00:24:38.421Z,7.11
2022-09-23T00:27:10.920Z,7.07
2022-09-23T00:29:42.547Z,7.01
2022-09-23T00:32:16.178Z,6.96
2022-09-23T00:34:48.012Z,6.93
2022-09-23T00:37:20.759Z,6.93
2022-09-23T00:39:52.345Z,6.91
2022-09-23T00:42:27.696Z,6.89
2022-09-23T00:45:00.671Z,6.88
2022-09-23T00:47:36.540Z,6.86
2022-09-23T00:50:18.013Z,6.82
2022-09-23T00:52:53.879Z,6.78
2022-09-23T00:55:31.913Z,6.73
2022-09-23T00:58:07.723Z,6.70
2022-09-23T01:00:39.330Z,6.70
2022-09-23T01:03:12.890Z,6.68
2022-09-23T01:05:45.115Z,6.66
2022-09-23T01:08:17.718Z,6.65
2022-09-23T01:10:59.373Z,6.64
2022-09-23T01:13:39.815Z,6.64
2022-09-23T01:16:19.753Z,6.64
2022-09-23T01:19:00.130Z,6.64
2022-09-23T01:21:46.042Z,6.63
2022-09-23T01:24:46.630Z,6.60
2022-09-23T01:27:27.580Z,6.59
2022-09-23T01:30:21.953Z,6.57
2022-09-23T01:33:05.695Z,6.54
2022-09-23T01:35:50.700Z,6.49
2022-09-23T01:38:34.571Z,6.47
2022-09-23T01:41:16.171Z,6.46
2022-09-23T01:43:55.672Z,6.44
2022-09-23T01:46:34.189Z,6.45
2022-09-23T01:49:13.018Z,6.46
2022-09-23T01:51:54.695Z,6.45
2022-09-23T01:54:32.187Z,6.42
2022-09-23T01:57:10.325Z,6.40
2022-09-23T01:59:48.032Z,6.36
2022-09-23T02:02:27.814Z,6.33
2022-09-23T02:05:03.891Z,6.33
2022-09-23T02:07:42.067Z,6.34
2022-09-23T02:10:17.797Z,6.35
2022-09-23T02:12:51.518Z,6.33
2022-09-23T02:15:27.557Z,6.24
2022-09-23T02:18:04.954Z,6.12
2022-09-23T02:20:40.682Z,6.02
2022-09-23T02:23:17.285Z,5.91
2022-09-23T02:25:55.541Z,5.81
2022-09-23T02:28:33.876Z,5.77
2022-09-23T02:31:12.170Z,5.76
2022-09-23T02:33:53.592Z,5.70
2022-09-23T02:36:34.725Z,5.61
2022-09-23T02:39:15.319Z,5.50
2022-09-23T02:41:52.329Z,5.39
2022-09-23T02:45:41.639Z,5.28
2022-09-23T02:48:19.482Z,5.19
2022-09-23T02:50:53.991Z,5.10
2022-09-23T02:53:27.551Z,5.04
2022-09-23T02:55:59.168Z,4.99
2022-09-23T02:58:31.549Z,4.95
2022-09-23T03:01:12.805Z,4.93
2022-09-23T03:03:50.573Z,4.91
2022-09-23T03:06:33.080Z,4.87
2022-09-23T03:09:11.646Z,4.86
2022-09-23T03:11:49.443Z,4.85
2022-09-23T03:14:31.073Z,4.80
2022-09-23T03:17:07.329Z,4.75
2022-09-23T03:19:48.450Z,4.77
2022-09-23T03:22:22.040Z,4.78
2022-09-23T03:24:55.482Z,4.82
2022-09-23T03:27:31.331Z,4.86
2022-09-23T03:30:03.975Z,4.88
2022-09-23T03:32:46.068Z,4.91
2022-09-23T03:35:17.976Z,4.92
2022-09-23T03:37:54.318Z,4.95
2022-09-23T03:40:29.711Z,4.99
2022-09-23T03:43:04.346Z,5.00
2022-09-23T03:45:36.655Z,5.02
2022-09-23T03:48:08.367Z,5.05
2022-09-23T03:50:40.163Z,5.05
2022-09-23T03:53:16.007Z,5.07
2022-09-23T03:55:48.276Z,5.10
2022-09-23T03:58:19.832Z,5.11
2022-09-23T04:00:55.138Z,5.07
2022-09-23T04:03:29.068Z,5.05
2022-09-23T04:06:00.921Z,5.04
2022-09-23T04:08:32.647Z,5.01
2022-09-23T04:11:05.415Z,4.96
2022-09-23T04:13:38.608Z,4.92
2022-09-23T04:16:11.732Z,4.87
2022-09-23T04:18:43.353Z,4.85
2022-09-23T04:21:14.911Z,4.82
2022-09-23T04:23:47.904Z,4.75
2022-09-23T04:26:20.213Z,4.74
2022-09-23T04:28:51.970Z,4.73
2022-09-23T04:31:24.229Z,4.76
2022-09-23T04:33:57.062Z,4.80
2022-09-23T04:36:30.405Z,4.86
2022-09-23T04:39:02.873Z,4.89
2022-09-23T04:41:34.776Z,4.91
2022-09-23T04:44:06.475Z,4.96
2022-09-23T04:46:39.297Z,4.98
2022-09-23T04:49:11.288Z,5.02
2022-09-23T04:51:43.764Z,5.07
2022-09-23T04:54:17.068Z,5.09
2022-09-23T04:56:48.601Z,5.16
2022-09-23T04:59:20.333Z,5.23
2022-09-23T05:01:52.715Z,5.32
2022-09-23T05:07:57.076Z,5.48
2022-09-23T05:10:31.187Z,5.54
2022-09-23T05:13:11.593Z,5.62
2022-09-23T05:15:51.245Z,5.68
2022-09-23T05:18:22.888Z,5.72
2022-09-23T05:21:19.663Z,5.77
2022-09-23T05:24:01.517Z,5.80
2022-09-23T05:26:34.682Z,5.88
2022-09-23T05:29:07.060Z,5.92
2022-09-23T05:31:40.397Z,5.95
2022-09-23T05:34:12.256Z,6.00
2022-09-23T05:36:43.848Z,6.07
2022-09-23T05:39:15.584Z,6.13
2022-09-23T05:41:47.676Z,6.19
2022-09-23T05:44:19.284Z,6.26
2022-09-23T05:46:51.013Z,6.34
2022-09-23T05:49:33.211Z,6.41
2022-09-23T05:52:16.549Z,6.50
2022-09-23T05:54:48.107Z,6.57
2022-09-23T05:57:21.210Z,6.65
2022-09-23T05:59:52.973Z,6.73
2022-09-23T06:02:25.442Z,6.79
2022-09-23T06:04:57.079Z,6.84
2022-09-23T06:07:36.348Z,6.91
2022-09-23T06:10:10.849Z,7.00
2022-09-23T06:12:44.630Z,7.10
2022-09-23T06:15:17.035Z,7.21
2022-09-23T06:17:51.609Z,7.32
2022-09-23T06:20:23.239Z,7.40
2022-09-23T06:22:55.665Z,7.50
2022-09-23T06:25:27.265Z,7.61
2022-09-23T06:27:59.409Z,7.68
2022-09-23T06:30:31.101Z,7.77
2022-09-23T06:33:03.050Z,7.87
2022-09-23T06:35:34.801Z,7.98
2022-09-23T06:38:07.642Z,8.08
2022-09-23T06:40:39.262Z,8.15
2022-09-23T06:43:11.930Z,8.26
2022-09-23T06:45:43.839Z,8.36
2022-09-23T06:48:15.471Z,8.49
2022-09-23T06:50:47.159Z,8.61
2022-09-23T06:53:18.971Z,8.73
2022-09-23T06:55:50.757Z,8.87
2022-09-23T06:58:22.670Z,8.99
2022-09-23T07:00:55.255Z,9.07
2022-09-23T07:03:27.628Z,9.18
2022-09-23T07:06:01.777Z,9.31
2022-09-23T07:08:34.819Z,9.43
2022-09-23T07:11:13.364Z,9.59
2022-09-23T07:13:46.791Z,9.74
2022-09-23T07:16:18.484Z,9.88
2022-09-23T07:18:50.464Z,10.02
2022-09-23T07:21:22.220Z,10.17
2022-09-23T07:23:55.355Z,10.32
2022-09-23T07:26:27.589Z,10.45
2022-09-23T07:29:04.947Z,10.57
2022-09-23T07:31:39.985Z,10.72
2022-09-23T07:34:12.884Z,10.84
2022-09-23T07:36:44.593Z,10.97
2022-09-23T07:39:16.196Z,11.12
2022-09-23T07:41:48.269Z,11.25
2022-09-23T07:44:22.779Z,11.38
2022-09-23T07:46:54.407Z,11.52
2022-09-23T07:49:26.063Z,11.66
2022-09-23T07:51:58.004Z,11.82
2022-09-23T07:54:29.923Z,11.96
2022-09-23T07:57:01.988Z,12.08
2022-09-23T07:59:36.246Z,12.21
2022-09-23T08:02:07.970Z,12.33
2022-09-23T08:04:39.712Z,12.48
2022-09-23T08:07:13.409Z,12.60
2022-09-23T08:09:47.037Z,12.72
2022-09-23T08:12:22.360Z,12.83
2022-09-23T08:14:54.112Z,12.98
2022-09-23T08:17:26.004Z,13.10
2022-09-23T08:19:57.610Z,13.16
2022-09-23T08:22:29.912Z,13.26
2022-09-23T08:25:01.579Z,13.37
2022-09-23T08:27:33.290Z,13.49
2022-09-23T08:30:13.794Z,13.62
2022-09-23T08:32:45.498Z,13.80
2022-09-23T08:35:17.666Z,13.96
2022-09-23T08:37:49.413Z,14.09
2022-09-23T08:40:26.742Z,14.14
2022-09-23T08:42:58.409Z,14.20
2022-09-23T08:45:30.578Z,14.29
2022-09-23T08:48:10.739Z,14.37
2022-09-23T08:50:49.749Z,14.48
2022-09-23T08:53:27.448Z,14.60
2022-09-23T08:56:04.106Z,14.74
2022-09-23T08:58:48.166Z,14.87
2022-09-23T09:01:25.838Z,14.99
2022-09-23T09:03:59.490Z,15.05
2022-09-23T09:06:52.937Z,15.16
2022-09-23T09:09:31.583Z,15.29
2022-09-23T09:12:12.861Z,15.41
2022-09-23T09:14:51.988Z,15.55
2022-09-23T09:17:36.630Z,15.68
2022-09-23T09:20:23.306Z,15.76
2022-09-23T09:23:00.719Z,15.72
2022-09-23T09:25:42.580Z,15.75
2022-09-23T09:28:20.097Z,15.86
2022-09-23T09:30:57.511Z,15.96
2022-09-23T09:33:37.584Z,16.05
2022-09-23T09:36:21.854Z,16.15
2022-09-23T09:38:53.481Z,16.25
2022-09-23T09:41:27.488Z,16.36
2022-09-23T09:44:00.916Z,16.48
2022-09-23T09:46:51.099Z,16.60
2022-09-23T09:49:31.023Z,16.69
2022-09-23T09:52:20.770Z,16.71
2022-09-23T09:54:53.676Z,16.55
2022-09-23T09:57:36.053Z,16.41
2022-09-23T10:00:38.790Z,16.48
2022-09-23T10:03:29.055Z,16.60
2022-09-23T10:06:00.922Z,16.69
2022-09-23T10:08:37.429Z,16.85
2022-09-23T10:11:17.678Z,17.02
2022-09-23T10:14:07.135Z,17.11
2022-09-23T10:16:41.010Z,17.23
2022-09-23T10:19:26.135Z,17.30
2022-09-23T10:22:01.749Z,17.42
2022-09-23T10:24:36.443Z,17.51
2022-09-23T10:27:11.448Z,17.70
2022-09-23T10:29:52.095Z,17.80
2022-09-23T10:32:28.001Z,17.86
2022-09-23T10:35:03.007Z,17.93
2022-09-23T10:37:39.785Z,18.02
2022-09-23T10:40:43.784Z,18.00
2022-09-23T10:43:42.131Z,17.79
2022-09-23T10:46:37.887Z,17.67
2022-09-23T10:49:50.063Z,17.71
2022-09-23T10:52:39.371Z,17.90
2022-09-23T10:55:24.569Z,18.10
2022-09-23T10:58:25.664Z,18.20
2022-09-23T11:01:07.088Z,18.34
2022-09-23T11:04:01.452Z,18.11
2022-09-23T11:06:47.793Z,17.75
2022-09-23T11:09:32.748Z,17.44
2022-09-23T11:12:20.147Z,17.27
2022-09-23T11:15:04.873Z,17.46
2022-09-23T11:17:52.585Z,17.75
2022-09-23T11:20:48.211Z,18.11
2022-09-23T11:23:48.041Z,18.39
2022-09-23T11:26:33.293Z,18.49
2022-09-23T11:29:23.781Z,18.57
2022-09-23T11:32:10.306Z,18.66
2022-09-23T11:35:02.654Z,18.73
2022-09-23T11:37:38.106Z,18.85
2022-09-23T11:40:25.492Z,18.85
2022-09-23T11:43:04.211Z,18.97
2022-09-23T11:45:42.006Z,19.10
2022-09-23T11:48:19.182Z,19.18
2022-09-23T11:50:58.987Z,19.15
2022-09-23T11:53:39.085Z,19.11
2022-09-23T11:56:31.879Z,19.11
2022-09-23T11:59:13.304Z,19.12
2022-09-23T12:01:58.207Z,19.12
2022-09-23T12:04:56.855Z,19.09
2022-09-23T12:07:35.927Z,18.91
2022-09-23T12:10:10.325Z,18.73
2022-09-23T12:12:49.313Z,18.67
2022-09-23T12:15:36.080Z,18.77
2022-09-23T12:18:23.555Z,18.92
2022-09-23T12:21:27.125Z,18.78
2022-09-23T12:24:25.463Z,18.55
2022-09-23T12:27:01.500Z,18.40
2022-09-23T12:29:36.260Z,18.46
2022-09-23T12:32:10.082Z,18.66
2022-09-23T12:34:49.199Z,18.86
2022-09-23T12:37:28.960Z,19.05
2022-09-23T12:40:26.489Z,19.14
2022-09-23T12:43:01.225Z,19.08
2022-09-23T12:45:41.547Z,18.94
2022-09-23T12:48:48.989Z,18.68
2022-09-23T12:51:25.215Z,18.36
2022-09-23T12:54:15.331Z,18.09
2022-09-23T12:57:01.808Z,17.91
2022-09-23T12:59:57.557Z,17.78
2022-09-23T13:02:38.702Z,17.77
2022-09-23T13:05:38.809Z,17.79
2022-09-23T13:08:14.712Z,17.86
2022-09-23T13:10:50.023Z,18.00
2022-09-23T13:13:28.326Z,18.16
2022-09-23T13:16:13.841Z,18.20
2022-09-23T13:18:59.738Z,18.37
2022-09-23T13:22:09.274Z,18.46
2022-09-23T13:24:44.403Z,18.49
2022-09-23T13:27:23.093Z,18.53
2022-09-23T13:29:59.935Z,18.54
2022-09-23T13:32:35.459Z,18.46
2022-09-23T13:35:16.799Z,18.36
2022-09-23T13:37:50.111Z,18.35
2022-09-23T13:40:31.808Z,18.31
2022-09-23T13:43:05.956Z,18.25
2022-09-23T13:45:43.304Z,18.18
2022-09-23T13:48:16.610Z,18.14
2022-09-23T13:50:53.606Z,18.16
2022-09-23T13:53:29.012Z,18.18
2022-09-23T13:56:06.464Z,18.18
2022-09-23T13:58:38.405Z,18.23
2022-09-23T14:01:23.364Z,18.27
2022-09-23T14:03:54.961Z,18.31
2022-09-23T14:06:28.330Z,18.30
2022-09-23T14:09:02.498Z,18.24
2022-09-23T14:11:38.953Z,18.27
2022-09-23T14:14:14.991Z,18.32
2022-09-23T14:16:49.782Z,18.37
2022-09-23T14:19:23.563Z,18.37
2022-09-23T14:21:56.439Z,18.31
2022-09-23T14:24:34.189Z,18.29
2022-09-23T14:27:18.988Z,18.32
2022-09-23T14:29:51.181Z,18.31
2022-09-23T14:32:27.682Z,18.33
2022-09-23T14:35:17.828Z,18.35
2022-09-23T14:38:18.937Z,18.34
2022-09-23T14:41:15.572Z,18.35
2022-09-23T14:43:52.862Z,18.32
2022-09-23T14:46:25.889Z,18.28
2022-09-23T14:49:05.881Z,18.20
2022-09-23T14:51:48.170Z,18.06
2022-09-23T14:54:42.580Z,17.87
2022-09-23T14:57:30.560Z,17.66
2022-09-23T15:00:17.512Z,17.51
2022-09-23T15:03:01.975Z,17.43
2022-09-23T15:05:43.188Z,17.37
2022-09-23T15:08:19.222Z,17.32
2022-09-23T15:10:53.032Z,17.28
2022-09-23T15:13:28.451Z,17.22
2022-09-23T15:16:02.030Z,17.19
2022-09-23T15:18:36.987Z,17.17
2022-09-23T15:21:13.942Z,17.18
2022-09-23T15:23:50.022Z,17.27
2022-09-23T15:26:24.669Z,17.36
2022-09-23T15:28:59.934Z,17.43
2022-09-23T15:31:32.467Z,17.45
2022-09-23T15:34:05.660Z,17.42
2022-09-23T15:36:38.399Z,17.40
2022-09-23T15:39:12.142Z,17.37
2022-09-23T15:41:44.072Z,17.39
2022-09-23T15:44:18.104Z,17.38
2022-09-23T15:46:52.055Z,17.35
2022-09-23T15:49:30.394Z,17.28
2022-09-23T15:52:04.408Z,17.18
2022-09-23T15:54:36.287Z,17.08
2022-09-23T15:57:08.075Z,16.97
2022-09-23T15:59:40.196Z,16.83
2022-09-23T16:02:25.845Z,16.71
2022-09-23T16:04:57.490Z,16.56
2022-09-23T16:07:29.175Z,16.42
2022-09-23T16:10:00.869Z,16.30
2022-09-23T16:12:33.311Z,16.17
2022-09-23T16:15:05.065Z,16.06
2022-09-23T16:17:37.823Z,15.95
2022-09-23T16:20:12.403Z,15.84
2022-09-23T16:22:43.989Z,15.74
2022-09-23T16:25:15.716Z,15.63
2022-09-23T16:27:47.245Z,15.51
2022-09-23T16:30:19.127Z,15.38
2022-09-23T16:32:51.790Z,15.24
2022-09-23T16:35:26.970Z,15.07
2022-09-23T16:37:58.583Z,14.91
2022-09-23T16:40:35.790Z,14.79
2022-09-23T16:43:08.440Z,14.65
2022-09-23T16:45:40.105Z,14.50
2022-09-23T16:48:12.643Z,14.41
2022-09-23T16:50:44.966Z,14.32
2022-09-23T16:53:18.215Z,14.23
2022-09-23T16:55:49.871Z,14.15
2022-09-23T16:58:22.499Z,14.05
2022-09-23T17:01:17.494Z,13.94
2022-09-23T17:03:49.764Z,13.85
2022-09-23T17:06:24.080Z,13.78
2022-09-23T17:08:56.341Z,13.72
2022-09-23T17:11:33.430Z,13.65
2022-09-23T17:14:06.394Z,13.57
2022-09-23T17:16:38.127Z,13.49
2022-09-23T17:19:11.905Z,13.42
2022-09-23T17:21:43.540Z,13.33
2022-09-23T17:24:15.320Z,13.27
2022-09-23T17:26:52.606Z,13.22
2022-09-23T17:29:26.973Z,13.17
2022-09-23T17:31:59.085Z,13.16
2022-09-23T17:34:33.572Z,13.15
2022-09-23T17:37:05.300Z,13.14
2022-09-23T17:39:37.043Z,13.13
2022-09-23T17:42:08.726Z,13.12
2022-09-23T17:44:41.279Z,13.11
2022-09-23T17:47:12.973Z,13.10
2022-09-23T17:49:47.272Z,13.10
2022-09-23T17:52:20.055Z,13.06
2022-09-23T17:54:53.908Z,13.00
2022-09-23T17:57:25.766Z,12.96
2022-09-23T17:59:57.634Z,12.90
2022-09-23T18:02:29.380Z,12.83
2022-09-23T18:05:01.262Z,12.75
2022-09-23T18:07:33.037Z,12.70
2022-09-23T18:10:12.497Z,12.64
2022-09-23T18:12:44.214Z,12.60
2022-09-23T18:15:19.963Z,12.55
2022-09-23T18:17:51.946Z,12.53
2022-09-23T18:20:29.022Z,12.51
2022-09-23T18:23:02.338Z,12.49
2022-09-23T18:25:39.661Z,12.45
2022-09-23T18:28:11.764Z,12.42
2022-09-23T18:30:53.859Z,12.38
2022-09-23T18:33:25.968Z,12.36
2022-09-23T18:36:00.866Z,12.32
2022-09-23T18:38:32.887Z,12.27
2022-09-23T18:41:05.975Z,12.20
2022-09-23T18:43:42.227Z,12.13
2022-09-23T18:46:17.624Z,12.05
2022-09-23T18:49:08.783Z,11.97
2022-09-23T18:51:49.193Z,11.94
2022-09-23T18:54:21.815Z,11.92
2022-09-23T18:56:53.714Z,11.88
2022-09-23T18:59:29.886Z,11.87
2022-09-23T19:02:03.043Z,11.84
2022-09-23T19:04:35.310Z,11.80
2022-09-23T19:07:08.733Z,11.76
2022-09-23T19:09:40.474Z,11.74
2022-09-23T19:12:13.128Z,11.75
2022-09-23T19:14:45.057Z,11.75
2022-09-23T19:17:17.647Z,11.70
2022-09-23T19:19:50.258Z,11.64
2022-09-23T19:22:22.834Z,11.58
2022-09-23T19:24:54.552Z,11.49
2022-09-23T19:27:26.285Z,11.41
2022-09-23T19:29:58.384Z,11.32
2022-09-23T19:32:35.695Z,11.24
2022-09-23T19:35:10.402Z,11.19
2022-09-23T19:37:43.238Z,11.16
2022-09-23T19:40:15.599Z,11.12
2022-09-23T19:42:47.723Z,11.10
2022-09-23T19:45:19.585Z,11.09
2022-09-23T19:47:56.832Z,11.04
2022-09-23T19:50:30.908Z,10.97
2022-09-23T19:53:06.203Z,10.96
2022-09-23T19:55:38.813Z,10.93
2022-09-23T19:58:10.642Z,10.92
2022-09-23T20:00:42.784Z,10.92
2022-09-23T20:03:18.477Z,10.92
2022-09-23T20:05:58.096Z,10.92
2022-09-23T20:08:31.894Z,10.90
2022-09-23T20:11:11.662Z,10.86
2022-09-23T20:13:47.451Z,10.84
2022-09-23T20:16:20.864Z,10.82
2022-09-23T20:18:55.682Z,10.82
2022-09-23T20:21:28.338Z,10.82
2022-09-23T20:24:00.470Z,10.81
2022-09-23T20:26:49.691Z,10.81
2022-09-23T20:29:21.309Z,10.81
2022-09-23T20:31:52.973Z,10.79
2022-09-23T20:34:27.498Z,10.78
2022-09-23T20:36:59.351Z,10.78
2022-09-23T20:39:31.113Z,10.75
2022-09-23T20:42:02.812Z,10.74
2022-09-23T20:44:35.309Z,10.74
2022-09-23T20:47:07.093Z,10.71
2022-09-23T20:49:42.595Z,10.68
2022-09-23T20:52:16.619Z,10.66
2022-09-23T20:54:51.703Z,10.62
2022-09-23T20:57:23.362Z,10.58
2022-09-23T20:59:54.961Z,10.52
2022-09-23T21:02:27.371Z,10.46
2022-09-23T21:04:59.041Z,10.37
2022-09-23T21:07:31.044Z,10.31
2022-09-23T21:10:12.301Z,10.27
2022-09-23T21:12:42.716Z,10.23
2022-09-23T21:15:14.703Z,10.16
2022-09-23T21:17:46.454Z,10.10
2022-09-23T21:20:24.175Z,10.05
2022-09-23T21:22:56.438Z,9.97
2022-09-23T21:25:29.183Z,9.87
2022-09-23T21:28:02.115Z,9.76
2022-09-23T21:30:36.087Z,9.69
2022-09-23T21:33:07.643Z,9.62
2022-09-23T21:35:39.369Z,9.55
2022-09-23T21:38:10.968Z,9.48
2022-09-23T21:40:58.616Z,9.41
2022-09-23T21:43:33.354Z,9.39
2022-09-23T21:46:07.512Z,9.38
2022-09-23T21:48:41.241Z,9.35
2022-09-23T21:51:16.891Z,9.30
2022-09-23T21:53:49.104Z,9.26
2022-09-23T21:56:22.568Z,9.20
2022-09-23T21:58:56.363Z,9.17
2022-09-23T22:01:31.642Z,9.21
2022-09-23T22:04:08.529Z,9.27
2022-09-23T22:06:40.869Z,9.28
2022-09-23T22:09:15.815Z,9.27
2022-09-23T22:12:10.305Z,9.26
2022-09-23T22:14:43.409Z,9.28
2022-09-23T22:17:16.624Z,9.30
2022-09-23T22:19:48.851Z,9.33
2022-09-23T22:22:22.602Z,9.34
2022-09-23T22:24:54.201Z,9.30
2022-09-23T22:27:27.459Z,9.28
2022-09-23T22:30:16.701Z,9.28
2022-09-23T22:32:54.887Z,9.29
2022-09-23T22:35:26.772Z,9.30
2022-09-23T22:38:00.600Z,9.29
2022-09-23T22:40:32.538Z,9.28
2022-09-23T22:43:05.895Z,9.24
2022-09-23T22:45:37.750Z,9.23
2022-09-23T22:48:09.624Z,9.24
2022-09-23T22:50:42.674Z,9.24
2022-09-23T22:53:15.476Z,9.22
2022-09-23T22:55:57.548Z,9.23
2022-09-23T22:58:32.722Z,9.22
2022-09-23T23:01:05.520Z,9.22
2022-09-23T23:03:38.165Z,9.20
2022-09-23T23:06:11.193Z,9.22
2022-09-23T23:08:43.551Z,9.24
2022-09-23T23:11:15.149Z,9.28
2022-09-23T23:13:47.605Z,9.33
2022-09-23T23:16:19.271Z,9.39
2022-09-23T23:18:50.996Z,9.43
2022-09-23T23:21:23.658Z,9.50
2022-09-23T23:23:55.769Z,9.56
2022-09-23T23:26:29.098Z,9.60
2022-09-23T23:29:01.946Z,9.63
2022-09-23T23:31:33.687Z,9.67
2022-09-23T23:34:06.192Z,9.73
2022-09-23T23:36:37.788Z,9.77
2022-09-23T23:39:09.718Z,9.79
2022-09-23T23:41:41.652Z,9.77
2022-09-23T23:44:15.658Z,9.75
2022-09-23T23:46:47.268Z,9.81
2022-09-23T23:49:20.452Z,9.86
2022-09-23T23:51:53.099Z,9.86
2022-09-23T23:54:25.584Z,9.86
2022-09-23T23:56:57.202Z,9.90
2022-09-23T23:59:32.115Z,9.93
